createdAt,value
2018-09-03T00:00:43.150Z,62.00
2018-09-03T00:03:12.325Z,62.10
2018-09-03T00:05:40.617Z,61.90
2018-09-03T00:08:08.926Z,62.00
2018-09-03T00:10:37.665Z,62.00
2018-09-03T00:13:06.098Z,62.00
2018-09-03T00:15:34.403Z,62.00
2018-09-03T00:18:02.770Z,61.30
2018-09-03T00:20:31.094Z,61.90
2018-09-03T00:23:00.780Z,61.90
2018-09-03T00:25:29.470Z,61.90
2018-09-03T00:27:57.790Z,61.90
2018-09-03T00:30:26.033Z,61.90
2018-09-03T00:33:00.014Z,61.90
2018-09-03T00:35:33.460Z,61.90
2018-09-03T00:38:08.028Z,61.90
2018-09-03T00:40:41.617Z,61.90
2018-09-03T00:43:15.421Z,61.90
2018-09-03T00:45:49.073Z,61.90
2018-09-03T00:48:17.707Z,61.90
2018-09-03T00:50:45.938Z,61.90
2018-09-03T00:53:14.193Z,62.60
2018-09-03T00:55:42.989Z,61.90
2018-09-03T00:58:11.330Z,61.80
2018-09-03T01:00:39.647Z,61.80
2018-09-03T01:03:08.130Z,61.80
2018-09-03T01:05:36.450Z,61.70
2018-09-03T01:08:04.693Z,61.70
2018-09-03T01:10:33.371Z,61.80
2018-09-03T01:13:01.608Z,61.70
2018-09-03T01:15:30.373Z,61.80
2018-09-03T01:18:00.831Z,61.70
2018-09-03T01:20:29.290Z,61.80
2018-09-03T01:22:57.530Z,61.70
2018-09-03T01:25:26.110Z,61.70
2018-09-03T01:27:54.341Z,61.70
2018-09-03T01:30:22.574Z,61.70
2018-09-03T01:32:51.247Z,61.80
2018-09-03T01:35:19.477Z,61.70
2018-09-03T01:37:47.769Z,61.70
2018-09-03T01:40:16.782Z,61.70
2018-09-03T01:42:45.085Z,61.70
2018-09-03T01:45:13.403Z,61.60
2018-09-03T01:47:41.934Z,61.60
2018-09-03T01:50:10.226Z,62.30
2018-09-03T01:52:38.455Z,61.60
2018-09-03T01:55:07.075Z,61.70
2018-09-03T01:57:35.381Z,61.60
2018-09-03T02:00:03.866Z,61.60
2018-09-03T02:02:32.160Z,61.60
2018-09-03T02:05:01.610Z,61.60
2018-09-03T02:07:29.855Z,61.60
2018-09-03T02:09:58.361Z,61.60
2018-09-03T02:12:26.589Z,61.60
2018-09-03T02:14:54.894Z,61.50
2018-09-03T02:17:23.411Z,61.90
2018-09-03T02:19:51.646Z,61.60
2018-09-03T02:22:19.870Z,61.50
2018-09-03T02:24:48.439Z,61.40
2018-09-03T02:27:16.745Z,61.40
2018-09-03T02:29:45.038Z,61.40
2018-09-03T02:32:13.429Z,61.40
2018-09-03T02:34:41.717Z,61.40
2018-09-03T02:37:09.954Z,61.50
2018-09-03T02:39:38.514Z,61.40
2018-09-03T02:42:06.755Z,61.40
2018-09-03T02:44:35.058Z,61.40
2018-09-03T02:47:04.058Z,61.40
2018-09-03T02:49:32.283Z,61.40
2018-09-03T02:52:00.583Z,61.40
2018-09-03T02:54:28.871Z,62.10
2018-09-03T02:56:57.165Z,61.40
2018-09-03T02:59:25.398Z,61.40
2018-09-03T03:01:56.107Z,61.40
2018-09-03T03:04:24.334Z,61.40
2018-09-03T03:06:53.333Z,61.40
2018-09-03T03:09:21.616Z,61.40
2018-09-03T03:11:49.999Z,61.30
2018-09-03T03:14:18.222Z,61.30
2018-09-03T03:16:46.495Z,61.40
2018-09-03T03:19:14.730Z,61.50
2018-09-03T03:21:43.038Z,61.30
2018-09-03T03:24:11.595Z,61.40
2018-09-03T03:26:39.858Z,61.30
2018-09-03T03:29:08.167Z,61.30
2018-09-03T03:31:36.439Z,61.20
2018-09-03T03:34:05.134Z,61.20
2018-09-03T03:36:33.369Z,62.00
2018-09-03T03:39:01.652Z,61.20
2018-09-03T03:41:29.874Z,61.20
2018-09-03T03:43:58.172Z,61.20
2018-09-03T03:46:27.199Z,61.20
2018-09-03T03:48:55.498Z,61.30
2018-09-03T03:51:23.805Z,61.20
2018-09-03T03:53:52.442Z,61.20
2018-09-03T03:56:20.679Z,61.20
2018-09-03T03:58:49.169Z,61.20
2018-09-03T04:01:18.814Z,61.20
2018-09-03T04:03:47.045Z,61.20
2018-09-03T04:06:15.353Z,61.10
2018-09-03T04:08:45.078Z,61.20
2018-09-03T04:11:13.328Z,61.10
2018-09-03T04:13:41.558Z,61.80
2018-09-03T04:16:10.415Z,61.10
2018-09-03T04:18:38.734Z,61.20
2018-09-03T04:21:06.982Z,61.10
2018-09-03T04:23:35.338Z,61.10
2018-09-03T04:26:03.664Z,61.10
2018-09-03T04:28:31.911Z,61.10
2018-09-03T04:31:01.111Z,61.10
2018-09-03T04:33:29.325Z,61.10
2018-09-03T04:35:57.662Z,61.10
2018-09-03T04:38:26.142Z,61.10
2018-09-03T04:40:54.375Z,61.10
2018-09-03T04:43:22.610Z,61.10
2018-09-03T04:45:51.290Z,61.10
2018-09-03T04:48:19.497Z,61.10
2018-09-03T04:50:47.718Z,61.10
2018-09-03T04:53:16.925Z,61.10
2018-09-03T04:55:45.230Z,61.20
2018-09-03T04:58:13.579Z,61.40
2018-09-03T05:00:42.487Z,61.40
2018-09-03T05:03:10.717Z,61.60
2018-09-03T05:05:40.875Z,61.70
2018-09-03T05:08:09.559Z,61.70
2018-09-03T05:10:38.087Z,61.70
2018-09-03T05:13:06.398Z,61.60
2018-09-03T05:15:35.091Z,61.60
2018-09-03T05:18:03.355Z,61.60
2018-09-03T05:20:31.822Z,62.00
2018-09-03T05:23:02.499Z,62.70
2018-09-03T05:25:30.846Z,62.00
2018-09-03T05:27:59.083Z,62.00
2018-09-03T05:30:27.635Z,62.00
2018-09-03T05:32:56.044Z,62.10
2018-09-03T05:35:24.278Z,62.00
2018-09-03T05:37:53.283Z,62.10
2018-09-03T05:40:21.518Z,62.00
2018-09-03T05:42:49.934Z,62.00
2018-09-03T05:45:18.626Z,62.10
2018-09-03T05:47:46.871Z,62.00
2018-09-03T05:50:15.353Z,62.10
2018-09-03T05:52:43.962Z,62.20
2018-09-03T05:55:12.407Z,62.00
2018-09-03T05:57:40.711Z,62.00
2018-09-03T06:00:09.506Z,62.00
2018-09-03T06:02:37.810Z,62.00
2018-09-03T06:05:06.294Z,62.00
2018-09-03T06:07:34.755Z,62.00
2018-09-03T06:10:03.019Z,61.90
2018-09-03T06:12:31.734Z,61.90
2018-09-03T06:15:00.406Z,62.10
2018-09-03T06:17:28.650Z,62.10
2018-09-03T06:19:56.882Z,62.20
2018-09-03T06:22:26.258Z,62.30
2018-09-03T06:24:54.650Z,62.50
2018-09-03T06:27:22.903Z,62.50
2018-09-03T06:29:51.211Z,62.50
2018-09-03T06:32:19.537Z,62.50
2018-09-03T06:34:47.767Z,62.50
2018-09-03T06:37:16.653Z,62.50
2018-09-03T06:39:44.867Z,62.50
2018-09-03T06:42:13.122Z,62.50
2018-09-03T06:44:41.453Z,62.30
2018-09-03T06:47:09.683Z,62.40
2018-09-03T06:49:38.019Z,62.30
2018-09-03T06:52:06.813Z,62.30
2018-09-03T06:54:35.030Z,62.30
2018-09-03T06:57:03.279Z,63.00
2018-09-03T06:59:32.573Z,62.30
2018-09-03T07:02:00.783Z,62.60
2018-09-03T07:04:29.018Z,62.20
2018-09-03T07:06:57.598Z,62.30
2018-09-03T07:09:25.837Z,62.20
2018-09-03T07:11:54.169Z,62.20
2018-09-03T07:14:23.728Z,62.20
2018-09-03T07:16:52.027Z,62.30
2018-09-03T07:19:20.351Z,62.20
2018-09-03T07:21:49.623Z,62.10
2018-09-03T07:24:17.859Z,62.10
2018-09-03T07:26:46.090Z,62.10
2018-09-03T07:29:14.395Z,62.00
2018-09-03T07:31:42.629Z,62.20
2018-09-03T07:34:10.866Z,62.10
2018-09-03T07:36:39.272Z,62.00
2018-09-03T07:39:08.415Z,61.90
2018-09-03T07:41:36.979Z,61.90
2018-09-03T07:44:05.641Z,61.90
2018-09-03T07:46:34.059Z,61.90
2018-09-03T07:49:02.308Z,61.90
2018-09-03T07:51:31.246Z,61.90
2018-09-03T07:53:59.471Z,61.90
2018-09-03T07:56:27.714Z,61.90
2018-09-03T07:58:57.046Z,61.90
2018-09-03T08:01:25.298Z,61.90
2018-09-03T08:03:55.443Z,61.90
2018-09-03T08:06:23.696Z,61.90
2018-09-03T08:08:52.011Z,61.90
2018-09-03T08:11:20.582Z,62.00
2018-09-03T08:13:48.823Z,62.80
2018-09-03T08:16:17.311Z,61.90
2018-09-03T08:18:45.698Z,61.90
2018-09-03T08:21:13.930Z,61.90
2018-09-03T08:23:42.185Z,61.90
2018-09-03T08:26:11.164Z,61.90
2018-09-03T08:28:39.482Z,61.90
2018-09-03T08:31:07.877Z,61.90
2018-09-03T08:33:36.294Z,61.90
2018-09-03T08:36:04.599Z,61.80
2018-09-03T08:38:32.942Z,61.80
2018-09-03T08:41:01.842Z,61.70
2018-09-03T08:43:30.321Z,61.70
2018-09-03T08:45:58.596Z,61.60
2018-09-03T08:48:27.190Z,61.70
2018-09-03T08:50:55.444Z,61.60
2018-09-03T08:53:23.665Z,61.60
2018-09-03T08:55:52.635Z,61.60
2018-09-03T08:58:20.878Z,61.60
2018-09-03T09:00:49.127Z,61.60
2018-09-03T09:03:22.890Z,61.60
2018-09-03T09:05:51.170Z,61.60
2018-09-03T09:08:19.465Z,61.60
2018-09-03T09:10:48.747Z,61.60
2018-09-03T09:13:19.114Z,61.60
2018-09-03T09:15:48.182Z,61.50
2018-09-03T09:18:17.313Z,61.60
2018-09-03T09:20:45.999Z,61.60
2018-09-03T09:23:14.527Z,61.60
2018-09-03T09:25:42.846Z,61.50
2018-09-03T09:28:11.155Z,61.60
2018-09-03T09:30:40.698Z,61.70
2018-09-03T09:33:09.158Z,61.70
2018-09-03T09:35:37.479Z,61.90
2018-09-03T09:38:06.351Z,61.90
2018-09-03T09:40:34.866Z,62.10
2018-09-03T09:43:03.190Z,62.30
2018-09-03T09:45:31.695Z,62.30
2018-09-03T09:48:00.046Z,62.40
2018-09-03T09:50:28.292Z,62.40
2018-09-03T09:52:58.875Z,62.40
2018-09-03T09:55:27.286Z,62.80
2018-09-03T09:57:55.615Z,62.80
2018-09-03T10:00:29.444Z,63.10
2018-09-03T10:02:57.717Z,62.80
2018-09-03T10:05:25.963Z,62.90
2018-09-03T10:07:54.552Z,62.90
2018-09-03T10:10:22.791Z,62.80
2018-09-03T10:12:51.125Z,62.80
2018-09-03T10:15:19.614Z,62.70
2018-09-03T10:17:47.879Z,62.70
2018-09-03T10:20:16.894Z,62.90
2018-09-03T10:22:45.180Z,63.00
2018-09-03T10:25:13.618Z,62.80
2018-09-03T10:27:41.918Z,62.90
2018-09-03T10:30:10.175Z,62.80
2018-09-03T10:32:38.475Z,62.80
2018-09-03T10:35:07.873Z,62.80
2018-09-03T10:37:36.110Z,63.20
2018-09-03T10:40:04.385Z,63.30
2018-09-03T10:42:32.809Z,63.60
2018-09-03T10:45:01.050Z,63.70
2018-09-03T10:47:29.370Z,63.70
2018-09-03T10:49:58.155Z,63.70
2018-09-03T10:52:26.403Z,63.70
2018-09-03T10:54:54.891Z,63.70
2018-09-03T10:57:23.290Z,63.70
2018-09-03T10:59:51.635Z,63.90
2018-09-03T11:02:20.054Z,64.20
2018-09-03T11:04:49.863Z,65.70
2018-09-03T11:07:18.217Z,66.40
2018-09-03T11:09:46.463Z,66.80
2018-09-03T11:12:15.101Z,66.90
2018-09-03T11:14:43.341Z,68.20
2018-09-03T11:17:11.587Z,68.80
2018-09-03T11:19:44.947Z,70.00
2018-09-03T11:22:13.819Z,69.30
2018-09-03T11:24:42.098Z,70.10
2018-09-03T11:27:11.017Z,68.80
2018-09-03T11:29:39.250Z,68.40
2018-09-03T11:32:07.495Z,68.20
2018-09-03T11:34:36.457Z,68.20
2018-09-03T11:37:04.692Z,67.80
2018-09-03T11:39:33.018Z,67.70
2018-09-03T11:42:02.713Z,67.30
2018-09-03T11:44:31.055Z,67.30
2018-09-03T11:46:59.329Z,67.10
2018-09-03T11:49:27.754Z,67.00
2018-09-03T11:51:55.998Z,66.80
2018-09-03T11:54:24.276Z,66.90
2018-09-03T11:56:52.799Z,66.90
2018-09-03T11:59:21.136Z,67.10
2018-09-03T12:01:49.546Z,67.30
2018-09-03T12:04:18.470Z,66.60
2018-09-03T12:06:46.732Z,67.30
2018-09-03T12:09:15.049Z,68.00
2018-09-03T12:11:43.325Z,68.20
2018-09-03T12:14:16.312Z,68.60
2018-09-03T12:16:45.059Z,68.30
2018-09-03T12:19:13.303Z,68.20
2018-09-03T12:21:41.609Z,67.60
2018-09-03T12:24:11.737Z,67.30
2018-09-03T12:26:40.039Z,67.50
2018-09-03T12:29:08.294Z,67.40
2018-09-03T12:31:36.592Z,66.50
2018-09-03T12:34:04.832Z,66.50
2018-09-03T12:36:33.073Z,66.80
2018-09-03T12:39:02.002Z,66.60
2018-09-03T12:41:30.340Z,66.50
2018-09-03T12:43:58.689Z,66.30
2018-09-03T12:46:27.700Z,66.00
2018-09-03T12:48:55.912Z,66.00
2018-09-03T12:51:24.190Z,66.00
2018-09-03T12:53:52.598Z,66.10
2018-09-03T12:56:20.846Z,66.60
2018-09-03T12:58:49.167Z,66.20
2018-09-03T13:01:17.391Z,66.00
2018-09-03T13:03:45.657Z,66.70
2018-09-03T13:06:13.964Z,67.10
2018-09-03T13:08:42.693Z,67.30
2018-09-03T13:11:10.939Z,67.10
2018-09-03T13:13:39.203Z,67.00
2018-09-03T13:16:07.995Z,66.80
2018-09-03T13:18:36.319Z,66.00
2018-09-03T13:21:04.643Z,65.90
2018-09-03T13:23:33.535Z,66.60
2018-09-03T13:26:02.634Z,65.30
2018-09-03T13:28:31.114Z,65.40
2018-09-03T13:30:59.820Z,66.10
2018-09-03T13:33:28.162Z,66.40
2018-09-03T13:35:56.419Z,66.20
2018-09-03T13:38:25.056Z,65.50
2018-09-03T13:40:53.410Z,65.20
2018-09-03T13:43:21.642Z,65.10
2018-09-03T13:45:50.911Z,64.90
2018-09-03T13:48:19.402Z,64.70
2018-09-03T13:50:47.621Z,64.80
2018-09-03T13:53:16.346Z,64.90
2018-09-03T13:55:44.655Z,64.90
2018-09-03T13:58:13.093Z,65.20
2018-09-03T14:00:41.828Z,65.80
2018-09-03T14:03:10.055Z,66.80
2018-09-03T14:05:39.988Z,67.30
2018-09-03T14:08:08.780Z,67.30
2018-09-03T14:10:37.026Z,67.60
2018-09-03T14:13:05.278Z,68.00
2018-09-03T14:15:33.812Z,67.50
2018-09-03T14:18:02.060Z,67.50
2018-09-03T14:20:30.428Z,67.00
2018-09-03T14:22:59.454Z,66.50
2018-09-03T14:25:27.911Z,66.20
2018-09-03T14:27:56.683Z,66.10
2018-09-03T14:30:25.437Z,65.90
2018-09-03T14:32:53.698Z,66.50
2018-09-03T14:35:22.054Z,65.90
2018-09-03T14:37:50.569Z,65.70
2018-09-03T14:40:18.814Z,65.80
2018-09-03T14:42:47.297Z,65.70
2018-09-03T14:45:16.005Z,65.50
2018-09-03T14:47:44.403Z,65.50
2018-09-03T14:50:12.798Z,65.20
2018-09-03T14:52:41.446Z,65.50
2018-09-03T14:55:09.728Z,67.50
2018-09-03T14:57:38.038Z,69.80
2018-09-03T15:00:07.747Z,70.00
2018-09-03T15:02:36.104Z,68.90
2018-09-03T15:05:04.382Z,69.70
2018-09-03T15:07:33.654Z,67.80
2018-09-03T15:10:01.920Z,67.30
2018-09-03T15:12:30.282Z,66.80
2018-09-03T15:14:59.009Z,66.70
2018-09-03T15:17:27.252Z,67.10
2018-09-03T15:19:55.508Z,69.00
2018-09-03T15:22:24.143Z,70.00
2018-09-03T15:24:52.488Z,70.20
2018-09-03T15:27:20.778Z,70.00
2018-09-03T15:29:50.927Z,69.80
2018-09-03T15:32:19.191Z,68.90
2018-09-03T15:34:47.455Z,69.00
2018-09-03T15:37:15.798Z,69.00
2018-09-03T15:39:44.070Z,69.00
2018-09-03T15:42:12.455Z,68.70
2018-09-03T15:44:40.834Z,68.50
2018-09-03T15:47:09.099Z,68.20
2018-09-03T15:49:37.428Z,68.50
2018-09-03T15:52:07.047Z,68.40
2018-09-03T15:54:35.388Z,68.50
2018-09-03T15:57:03.652Z,68.30
2018-09-03T15:59:32.076Z,68.20
2018-09-03T16:02:00.417Z,68.90
2018-09-03T16:04:28.656Z,67.80
2018-09-03T16:06:57.323Z,67.70
2018-09-03T16:09:25.583Z,67.10
2018-09-03T16:11:53.908Z,66.90
2018-09-03T16:14:23.287Z,66.70
2018-09-03T16:16:51.658Z,66.50
2018-09-03T16:19:20.006Z,66.30
2018-09-03T16:21:48.331Z,66.10
2018-09-03T16:24:16.672Z,66.00
2018-09-03T16:26:44.899Z,66.00
2018-09-03T16:29:13.355Z,65.80
2018-09-03T16:31:42.760Z,65.70
2018-09-03T16:34:11.015Z,65.90
2018-09-03T16:36:39.611Z,65.90
2018-09-03T16:39:07.898Z,66.50
2018-09-03T16:41:36.226Z,67.00
2018-09-03T16:44:05.074Z,66.70
2018-09-03T16:46:33.394Z,66.80
2018-09-03T16:49:01.673Z,66.80
2018-09-03T16:51:30.918Z,66.00
2018-09-03T16:53:59.170Z,65.70
2018-09-03T16:56:27.588Z,65.60
2018-09-03T16:58:55.907Z,65.70
2018-09-03T17:01:24.394Z,65.60
2018-09-03T17:03:53.944Z,65.50
2018-09-03T17:06:22.272Z,65.30
2018-09-03T17:08:50.556Z,65.30
2018-09-03T17:11:18.747Z,65.40
2018-09-03T17:13:47.372Z,65.40
2018-09-03T17:16:15.719Z,65.30
2018-09-03T17:18:44.076Z,65.60
2018-09-03T17:21:13.419Z,66.00
2018-09-03T17:23:41.780Z,65.70
2018-09-03T17:26:10.023Z,65.60
2018-09-03T17:28:39.011Z,65.60
2018-09-03T17:31:07.239Z,65.80
2018-09-03T17:33:36.030Z,67.40
2018-09-03T17:36:04.634Z,68.20
2018-09-03T17:38:32.986Z,68.10
2018-09-03T17:41:01.232Z,68.00
2018-09-03T17:43:29.949Z,67.90
2018-09-03T17:45:58.429Z,67.60
2018-09-03T17:48:26.687Z,67.80
2018-09-03T17:50:58.012Z,67.60
2018-09-03T17:53:26.350Z,67.70
2018-09-03T17:55:54.618Z,67.80
2018-09-03T17:58:23.723Z,67.70
2018-09-03T18:00:51.982Z,68.10
2018-09-03T18:03:20.327Z,68.10
2018-09-03T18:05:49.061Z,67.80
2018-09-03T18:08:17.397Z,67.70
2018-09-03T18:10:45.654Z,67.90
2018-09-03T18:13:13.982Z,67.80
2018-09-03T18:15:42.418Z,68.10
2018-09-03T18:18:10.721Z,68.20
2018-09-03T18:20:39.877Z,68.20
2018-09-03T18:23:09.311Z,68.00
2018-09-03T18:25:37.678Z,67.60
2018-09-03T18:28:07.048Z,67.50
2018-09-03T18:30:35.369Z,67.70
2018-09-03T18:33:03.695Z,68.00
2018-09-03T18:35:32.934Z,68.40
2018-09-03T18:38:01.288Z,68.10
2018-09-03T18:40:29.543Z,68.40
2018-09-03T18:42:58.681Z,68.30
2018-09-03T18:45:26.930Z,68.20
2018-09-03T18:47:55.287Z,68.10
2018-09-03T18:50:23.972Z,67.80
2018-09-03T18:52:52.462Z,67.90
2018-09-03T18:55:20.976Z,67.80
2018-09-03T18:57:49.528Z,67.80
2018-09-03T19:00:17.868Z,67.50
2018-09-03T19:02:46.172Z,67.70
2018-09-03T19:05:14.793Z,67.70
2018-09-03T19:07:43.412Z,67.50
2018-09-03T19:10:11.685Z,67.60
2018-09-03T19:12:40.732Z,67.50
2018-09-03T19:15:09.179Z,67.80
2018-09-03T19:17:37.545Z,67.50
2018-09-03T19:20:06.743Z,67.70
2018-09-03T19:22:35.044Z,68.00
2018-09-03T19:25:03.421Z,68.30
2018-09-03T19:27:33.175Z,68.10
2018-09-03T19:30:01.439Z,68.00
2018-09-03T19:32:29.883Z,67.90
2018-09-03T19:34:58.178Z,68.10
2018-09-03T19:37:27.046Z,67.80
2018-09-03T19:39:55.658Z,67.60
2018-09-03T19:42:23.950Z,67.90
2018-09-03T19:44:52.381Z,67.80
2018-09-03T19:47:21.544Z,67.80
2018-09-03T19:49:49.824Z,67.90
2018-09-03T19:52:18.146Z,67.70
2018-09-03T19:54:46.678Z,67.60
2018-09-03T19:57:14.960Z,67.50
2018-09-03T19:59:43.332Z,67.50
2018-09-03T20:02:12.129Z,67.40
2018-09-03T20:04:42.395Z,67.30
2018-09-03T20:07:10.853Z,67.50
2018-09-03T20:09:39.117Z,67.30
2018-09-03T20:12:07.775Z,67.20
2018-09-03T20:14:36.354Z,67.80
2018-09-03T20:17:04.660Z,67.20
2018-09-03T20:19:33.324Z,67.20
2018-09-03T20:22:01.599Z,67.30
2018-09-03T20:24:29.866Z,67.20
2018-09-03T20:26:59.222Z,67.20
2018-09-03T20:29:27.492Z,67.20
2018-09-03T20:31:55.776Z,67.30
2018-09-03T20:34:24.511Z,68.10
2018-09-03T20:36:52.878Z,68.10
2018-09-03T20:39:22.014Z,67.40
2018-09-03T20:41:50.287Z,67.60
2018-09-03T20:44:18.546Z,67.70
2018-09-03T20:46:46.797Z,67.80
2018-09-03T20:49:16.034Z,67.80
2018-09-03T20:51:45.188Z,67.30
2018-09-03T20:54:13.468Z,67.50
2018-09-03T20:56:42.356Z,66.90
2018-09-03T20:59:10.687Z,66.70
2018-09-03T21:01:38.978Z,66.70
2018-09-03T21:04:07.610Z,66.60
2018-09-03T21:06:35.938Z,66.60
2018-09-03T21:09:05.234Z,66.50
2018-09-03T21:11:33.999Z,66.40
2018-09-03T21:14:02.422Z,66.40
2018-09-03T21:16:30.723Z,66.30
2018-09-03T21:18:59.138Z,66.30
2018-09-03T21:21:27.468Z,66.30
2018-09-03T21:23:55.790Z,66.20
2018-09-03T21:26:25.596Z,66.20
2018-09-03T21:28:53.952Z,66.20
2018-09-03T21:31:22.182Z,66.20
2018-09-03T21:33:50.487Z,66.00
2018-09-03T21:36:18.730Z,66.00
2018-09-03T21:38:46.979Z,66.00
2018-09-03T21:41:16.102Z,66.00
2018-09-03T21:43:44.436Z,65.90
2018-09-03T21:46:12.774Z,65.90
2018-09-03T21:48:41.415Z,65.90
2018-09-03T21:51:09.661Z,65.90
2018-09-03T21:53:37.897Z,65.80
2018-09-03T21:56:06.471Z,65.80
2018-09-03T21:58:34.858Z,65.80
2018-09-03T22:01:03.175Z,65.80
2018-09-03T22:03:31.471Z,65.70
2018-09-03T22:05:59.706Z,65.70
2018-09-03T22:08:27.946Z,65.60
2018-09-03T22:10:57.031Z,65.70
2018-09-03T22:13:25.363Z,65.60
2018-09-03T22:15:53.673Z,65.60
2018-09-03T22:18:22.303Z,65.60
2018-09-03T22:20:50.550Z,65.50
2018-09-03T22:23:18.794Z,65.50
2018-09-03T22:25:47.673Z,65.50
2018-09-03T22:28:16.002Z,65.50
2018-09-03T22:30:44.235Z,65.40
2018-09-03T22:33:14.902Z,65.40
2018-09-03T22:35:43.206Z,65.40
2018-09-03T22:38:11.512Z,65.30
2018-09-03T22:40:40.045Z,65.30
2018-09-03T22:43:09.453Z,65.40
2018-09-03T22:45:37.695Z,65.30
2018-09-03T22:48:06.406Z,65.30
2018-09-03T22:50:34.763Z,65.30
2018-09-03T22:53:03.161Z,65.20
2018-09-03T22:55:32.603Z,65.20
2018-09-03T22:58:00.948Z,65.70
2018-09-03T23:00:29.331Z,65.20
2018-09-03T23:02:57.646Z,65.10
2018-09-03T23:05:27.549Z,65.20
2018-09-03T23:07:55.828Z,65.10
2018-09-03T23:10:24.484Z,65.10
2018-09-03T23:12:52.753Z,65.10
2018-09-03T23:15:21.081Z,65.10
2018-09-03T23:17:49.739Z,65.10
2018-09-03T23:20:17.963Z,65.00
2018-09-03T23:22:46.212Z,64.90
2018-09-03T23:25:15.679Z,65.00
2018-09-03T23:27:44.058Z,64.90
2018-09-03T23:30:12.287Z,64.90
2018-09-03T23:32:40.926Z,64.90
2018-09-03T23:35:09.215Z,64.90
2018-09-03T23:37:37.542Z,64.90
2018-09-03T23:40:06.778Z,64.90
2018-09-03T23:42:34.990Z,64.80
2018-09-03T23:45:03.871Z,64.80
2018-09-03T23:47:32.328Z,64.80
2018-09-03T23:50:00.558Z,64.80
2018-09-03T23:52:28.876Z,64.80
2018-09-03T23:54:57.445Z,64.80
2018-09-03T23:57:25.765Z,64.80
2018-09-03T23:59:53.997Z,64.80
